KDTW

Detroit Metropolitan Wayne County Airport

Detroit, Michigan, USA
METAR KDTW 140738Z 03003KT 1SM R03R/P6000FT -RA BKN012 OVC025 04/01 A3017 RMK AO2 TWR VIS 3 P0000 T00390006
Observed Flight Rules
Dec-14 @ 07:38 UTC (36 minutes ago) Instrument Flight Rules
Wind Visibility Clouds Conditions
30° at 3 knots 1 miles
  • Broken at 1,200' AGL
  • Overcast at 2,500' AGL
  • Light Rain
Temperatures Readings Precipitation
Current 4°C / 39°F
Dewpoint 1°C / 34°F
Humidity 81%
Altimeter 30.17" Hg
Pressure 1022 hPa
Elevation 195
Current Rain 0.005
METAR KDTW 140738Z 03003KT 1SM R03R/P6000FT -RA BKN012 OVC025 04/01 A3017 RMK AO2 TWR VIS 3 P0000 T00390006
Observed Flight Rules
Dec-14 @ 07:38 UTC
(36 minutes ago)
IFR
Wind Visibility
30° at 3 knots 1 miles
Clouds
  • Broken at 1,200' AGL
  • Overcast at 2,500' AGL
Conditions
  • Light Rain
Temperature Dewpoint
4°C / 39°F 1°C / 34°F
Humidity Altimeter Pressure
81% 30.17" Hg 1022 hPa
Current Rain
0.005